Time;durP1;ratioP1;P1;durP2;ratioP2;P2;SDS_P1;SDS_P2;PMS_P1;PMS_P2;Temp;Humidity;BMP_temperature;BMP_pressure;BME280_temperature;BME280_humidity;BME280_pressure;Samples;Min_cycle;Max_cycle;Signal;HPM_P1;HPM_P2
2023/05/25 00:00:14;;;;;;;19.67;11.57;;;9.70;86.80;;;;;;5054922;28;20175;-86
2023/05/25 00:02:41;;;;;;;19.03;11.60;;;9.70;87.10;;;;;;5036753;28;20215;-86
2023/05/25 00:05:10;;;;;;;22.27;11.73;;;9.70;87.20;;;;;;5037067;28;20204;-86
2023/05/25 00:07:35;;;;;;;24.37;12.10;;;9.70;87.20;;;;;;5036930;28;20218;-86
2023/05/25 00:10:01;;;;;;;19.17;11.90;;;9.60;87.30;;;;;;5036922;28;20589;-87
2023/05/25 00:12:27;;;;;;;24.67;12.20;;;9.60;87.30;;;;;;5054669;28;20210;-87
2023/05/25 00:14:52;;;;;;;22.40;12.37;;;9.50;87.20;;;;;;5036863;28;20262;-87
2023/05/25 00:17:18;;;;;;;19.40;11.97;;;9.50;87.50;;;;;;5036959;28;20198;-87
2023/05/25 00:19:44;;;;;;;18.50;11.90;;;9.60;87.60;;;;;;5054598;28;20646;-87
2023/05/25 00:22:13;;;;;;;24.07;11.87;;;9.50;87.70;;;;;;5036750;28;20250;-87
2023/05/25 00:24:39;;;;;;;28.40;12.77;;;9.50;87.80;;;;;;5054366;28;20204;-87
2023/05/25 00:27:06;;;;;;;21.30;12.07;;;9.40;88.10;;;;;;5054402;28;20247;-87
2023/05/25 00:29:32;;;;;;;24.03;21.67;;;9.40;88.40;;;;;;5054386;28;20214;-87
2023/05/25 00:31:57;;;;;;;26.97;19.97;;;9.40;88.40;;;;;;5036234;28;20227;-86
2023/05/25 00:34:30;;;;;;;30.37;22.80;;;9.40;88.30;;;;;;5036862;28;20214;-86
2023/05/25 00:36:56;;;;;;;24.07;21.60;;;9.40;88.40;;;;;;5036367;28;20551;-86
2023/05/25 00:39:21;;;;;;;28.27;21.87;;;9.30;88.40;;;;;;5036437;28;20275;-87
2023/05/25 00:41:48;;;;;;;27.57;21.87;;;9.30;88.40;;;;;;5036327;28;20221;-86
2023/05/25 00:44:15;;;;;;;25.70;22.40;;;9.30;88.50;;;;;;5036296;28;20642;-87
2023/05/25 00:47:01;;;;;;;25.17;22.67;;;9.30;88.40;;;;;;5036128;28;20184;-86
2023/05/25 00:49:29;;;;;;;25.70;22.33;;;9.30;88.30;;;;;;5036368;28;20178;-86
2023/05/25 00:51:56;;;;;;;15.13;11.40;;;9.30;88.20;;;;;;5036264;28;20564;-86
2023/05/25 00:54:22;;;;;;;22.00;11.20;;;9.30;88.10;;;;;;5036242;28;20180;-86
2023/05/25 00:56:58;;;;;;;19.80;11.37;;;9.20;87.90;;;;;;5036215;28;20598;-86
2023/05/25 00:59:48;;;;;;;17.43;11.03;;;9.20;87.90;;;;;;5035955;28;20220;-86
2023/05/25 01:02:16;;;;;;;26.47;12.03;;;9.20;87.80;;;;;;5035798;28;20264;-86
2023/05/25 01:04:51;;;;;;;17.20;11.53;;;9.10;87.70;;;;;;5035829;28;20642;-86
2023/05/25 01:07:21;;;;;;;26.90;13.20;;;9.10;87.80;;;;;;5053683;28;20657;-86
2023/05/25 01:09:49;;;;;;;20.87;11.70;;;9.20;87.90;;;;;;5035854;28;20164;-86
2023/05/25 01:12:16;;;;;;;21.07;11.23;;;9.20;88.20;;;;;;5053601;28;20188;-86
2023/05/25 01:14:42;;;;;;;26.33;11.77;;;9.20;88.50;;;;;;5053563;28;20261;-86
2023/05/25 01:17:11;;;;;;;24.30;11.40;;;9.10;88.60;;;;;;5035778;28;20184;-86
2023/05/25 01:19:39;;;;;;;20.47;11.50;;;9.10;88.70;;;;;;5053418;28;20198;-86
2023/05/25 01:22:18;;;;;;;23.07;12.10;;;9.10;88.90;;;;;;5035573;28;20199;-86
2023/05/25 01:24:52;;;;;;;25.47;12.13;;;9.20;89.10;;;;;;5035634;28;20196;-86
2023/05/25 01:27:42;;;;;;;22.37;11.63;;;9.10;89.40;;;;;;5053421;28;20700;-86
2023/05/25 01:30:11;;;;;;;27.87;12.97;;;9.10;89.60;;;;;;5035473;28;20207;-86
2023/05/25 01:32:37;;;;;;;23.80;12.87;;;9.20;89.80;;;;;;5053203;28;20563;-86
2023/05/25 01:35:04;;;;;;;30.67;12.40;;;9.20;90.00;;;;;;5035723;28;20642;-86
2023/05/25 01:37:31;;;;;;;25.50;11.97;;;9.20;90.10;;;;;;5035263;28;20176;-86
2023/05/25 01:39:57;;;;;;;19.83;11.57;;;9.20;90.30;;;;;;5053263;28;20254;-86
2023/05/25 01:42:22;;;;;;;31.00;11.50;;;9.20;90.50;;;;;;5052849;28;20228;-86
2023/05/25 01:44:49;;;;;;;27.93;12.67;;;9.20;90.50;;;;;;5035408;28;20238;-86
2023/05/25 01:47:40;;;;;;;26.57;13.17;;;9.20;90.60;;;;;;5035309;28;20268;-86
2023/05/25 01:50:13;;;;;;;33.17;14.17;;;9.20;90.80;;;;;;5035892;28;20195;-86
2023/05/25 01:52:44;;;;;;;30.00;12.63;;;9.10;90.90;;;;;;5035222;28;20200;-86
2023/05/25 01:55:16;;;;;;;24.97;14.50;;;9.10;91.20;;;;;;5035250;28;20176;-86
2023/05/25 01:57:44;;;;;;;22.00;12.93;;;9.20;91.40;;;;;;5035271;28;20660;-86
2023/05/25 02:00:12;;;;;;;22.87;12.43;;;9.20;91.50;;;;;;5035163;28;20241;-86
2023/05/25 02:02:40;;;;;;;26.93;12.30;;;9.10;91.50;;;;;;5035011;28;20218;-86
2023/05/25 02:05:07;;;;;;;24.63;12.20;;;9.10;91.50;;;;;;5035223;28;20635;-86
2023/05/25 02:07:33;;;;;;;28.30;12.50;;;9.00;91.50;;;;;;5053007;28;20572;-86
2023/05/25 02:09:58;;;;;;;28.93;13.97;;;9.00;91.60;;;;;;5035118;28;20274;-86
2023/05/25 02:12:24;;;;;;;20.33;13.50;;;9.00;91.80;;;;;;5034973;28;20577;-86
2023/05/25 02:14:50;;;;;;;34.43;15.53;;;9.00;92.00;;;;;;5035456;28;20179;-86
2023/05/25 02:17:16;;;;;;;27.00;13.37;;;8.90;92.10;;;;;;5052879;28;20187;-86
2023/05/25 02:19:43;;;;;;;25.07;13.27;;;8.90;92.20;;;;;;5035081;28;20597;-86
2023/05/25 02:22:08;;;;;;;29.37;20.20;;;8.80;92.30;;;;;;5035003;28;20277;-86
2023/05/25 02:24:34;;;;;;;29.93;19.33;;;8.90;92.30;;;;;;5052766;28;20223;-86
2023/05/25 02:27:00;;;;;;;35.07;18.50;;;8.90;92.40;;;;;;5034881;28;20669;-86
2023/05/25 02:29:26;;;;;;;37.00;19.60;;;9.00;92.40;;;;;;5034990;28;20172;-87
2023/05/25 02:31:51;;;;;;;30.10;20.00;;;9.10;92.40;;;;;;5052647;28;20198;-86
2023/05/25 02:34:17;;;;;;;31.53;20.20;;;9.20;92.50;;;;;;5034780;28;20209;-86
2023/05/25 02:36:43;;;;;;;32.60;18.70;;;9.30;92.50;;;;;;5034861;28;20267;-86
2023/05/25 02:39:10;;;;;;;28.67;17.57;;;9.30;92.40;;;;;;5034971;28;20219;-87
2023/05/25 02:41:36;;;;;;;34.80;19.00;;;9.30;92.40;;;;;;5035535;28;20196;-86
2023/05/25 02:44:02;;;;;;;38.67;18.83;;;9.30;92.40;;;;;;5052486;28;20196;-86
2023/05/25 02:46:27;;;;;;;34.10;18.20;;;9.40;92.40;;;;;;5034603;28;20234;-86
2023/05/25 02:48:53;;;;;;;33.80;18.47;;;9.30;92.40;;;;;;5034844;28;20180;-86
2023/05/25 02:51:18;;;;;;;35.97;20.20;;;9.30;92.40;;;;;;5052836;28;20200;-86
2023/05/25 02:53:44;;;;;;;30.30;19.77;;;9.30;92.40;;;;;;5036047;28;20183;-86
2023/05/25 02:56:10;;;;;;;40.47;19.77;;;9.40;92.30;;;;;;5038300;28;20176;-87
2023/05/25 02:58:37;;;;;;;31.53;19.20;;;9.30;92.40;;;;;;5056240;28;20646;-87
2023/05/25 03:01:04;;;;;;;25.47;18.37;;;9.30;92.30;;;;;;5038139;28;20203;-86
2023/05/25 03:03:30;;;;;;;28.77;18.03;;;9.30;92.30;;;;;;5037963;28;20713;-86
2023/05/25 03:05:58;;;;;;;36.33;19.57;;;9.30;92.30;;;;;;5038895;28;20259;-86
2023/05/25 03:08:24;;;;;;;27.90;11.87;;;9.40;92.20;;;;;;5055954;28;20172;-86
2023/05/25 03:10:49;;;;;;;22.93;10.33;;;9.40;92.20;;;;;;5056140;28;20176;-86
2023/05/25 03:13:15;;;;;;;26.57;11.33;;;9.30;92.10;;;;;;5038003;28;20183;-87
2023/05/25 03:15:40;;;;;;;26.17;10.10;;;9.30;92.00;;;;;;5038095;28;20176;-86
2023/05/25 03:18:06;;;;;;;21.20;11.33;;;9.30;92.00;;;;;;5038140;28;20188;-86
2023/05/25 03:20:32;;;;;;;23.80;10.50;;;9.20;92.00;;;;;;5038059;28;20238;-86
2023/05/25 03:22:57;;;;;;;19.97;10.30;;;9.20;91.90;;;;;;5037812;28;20208;-86
2023/05/25 03:25:23;;;;;;;22.00;10.43;;;9.20;91.90;;;;;;5055813;28;20168;-87
2023/05/25 03:27:52;;;;;;;19.83;10.00;;;9.20;91.90;;;;;;5037749;28;20183;-86
2023/05/25 03:30:19;;;;;;;20.50;10.70;;;9.20;91.80;;;;;;5055492;28;20180;-87
2023/05/25 03:32:45;;;;;;;25.03;10.43;;;9.20;91.90;;;;;;5055493;28;20184;-86
2023/05/25 03:35:10;;;;;;;19.63;10.23;;;9.20;91.80;;;;;;5037696;28;20175;-86
2023/05/25 03:37:36;;;;;;;20.63;11.07;;;9.20;91.80;;;;;;5037568;28;20180;-86
2023/05/25 03:40:01;;;;;;;19.53;10.30;;;9.20;91.80;;;;;;5037591;28;20176;-87
2023/05/25 03:42:27;;;;;;;22.27;10.80;;;9.20;91.80;;;;;;5037344;28;20196;-86
2023/05/25 03:44:52;;;;;;;19.33;10.53;;;9.20;91.80;;;;;;5037352;28;20212;-86
2023/05/25 03:47:18;;;;;;;23.10;11.20;;;9.30;91.80;;;;;;5037327;28;20259;-86
2023/05/25 03:49:43;;;;;;;23.43;10.67;;;9.30;91.70;;;;;;5055125;28;20294;-87
2023/05/25 03:52:09;;;;;;;32.17;11.50;;;9.30;91.70;;;;;;5037306;28;20290;-86
2023/05/25 03:54:34;;;;;;;30.93;12.00;;;9.30;91.70;;;;;;5037292;28;20180;-87
2023/05/25 03:57:02;;;;;;;22.80;10.70;;;9.50;91.70;;;;;;5055013;28;20553;-87
2023/05/25 03:59:28;;;;;;;23.43;10.70;;;9.60;91.60;;;;;;5037172;28;20176;-87
2023/05/25 04:01:53;;;;;;;25.37;12.00;;;9.70;91.50;;;;;;5054728;28;20222;-86
2023/05/25 04:04:19;;;;;;;17.83;10.10;;;9.80;91.40;;;;;;5037101;28;20294;-86
2023/05/25 04:06:47;;;;;;;21.37;11.10;;;9.80;91.40;;;;;;5054515;28;20174;-87
2023/05/25 04:09:14;;;;;;;23.67;12.57;;;10.00;91.30;;;;;;5054801;28;20164;-87
2023/05/25 04:11:39;;;;;;;23.03;11.43;;;10.00;91.00;;;;;;5054931;28;20241;-87
2023/05/25 04:14:05;;;;;;;20.70;10.70;;;10.00;90.90;;;;;;5036951;28;20172;-86
2023/05/25 04:16:30;;;;;;;23.30;10.87;;;10.00;90.70;;;;;;5054904;28;20168;-87
2023/05/25 04:18:56;;;;;;;18.73;10.93;;;10.10;90.50;;;;;;5036831;28;20180;-87
2023/05/25 04:21:21;;;;;;;22.83;10.10;;;10.10;90.50;;;;;;5054482;28;20198;-87
2023/05/25 04:23:47;;;;;;;19.23;10.13;;;10.10;90.30;;;;;;5054418;28;20200;-87
2023/05/25 04:26:14;;;;;;;20.90;11.07;;;10.10;90.20;;;;;;5054431;28;20199;-87
2023/05/25 04:28:40;;;;;;;20.13;10.90;;;10.10;90.20;;;;;;5036730;28;20176;-87
2023/05/25 04:31:06;;;;;;;24.90;10.47;;;10.10;90.00;;;;;;5036656;28;20214;-86
2023/05/25 04:33:33;;;;;;;22.03;10.97;;;10.10;90.00;;;;;;5036473;28;20664;-87
2023/05/25 04:35:59;;;;;;;20.93;10.83;;;10.10;89.80;;;;;;5054283;28;20164;-87
2023/05/25 04:38:25;;;;;;;26.33;11.10;;;10.10;89.80;;;;;;5036419;28;20178;-87
2023/05/25 04:40:55;;;;;;;22.93;11.80;;;10.20;89.80;;;;;;5036363;28;20179;-87
2023/05/25 04:43:20;;;;;;;22.57;11.83;;;10.30;89.70;;;;;;5036253;28;20195;-87
2023/05/25 04:45:46;;;;;;;23.00;11.03;;;10.30;89.70;;;;;;5054631;28;20223;-86
2023/05/25 04:48:12;;;;;;;21.70;11.43;;;10.30;89.60;;;;;;5036255;28;20309;-87
2023/05/25 04:50:41;;;;;;;17.43;10.87;;;10.20;89.60;;;;;;5036248;28;20176;-87
2023/05/25 04:53:07;;;;;;;19.83;12.40;;;10.30;89.70;;;;;;5053922;28;20285;-87
2023/05/25 04:55:33;;;;;;;23.10;11.60;;;10.30;89.60;;;;;;5036016;28;20183;-87
2023/05/25 04:57:59;;;;;;;21.37;11.03;;;10.30;89.70;;;;;;5036011;28;20655;-87
2023/05/25 05:00:25;;;;;;;24.97;11.00;;;10.30;89.70;;;;;;5035997;28;20172;-87
2023/05/25 05:02:50;;;;;;;21.40;11.60;;;10.30;89.80;;;;;;5035800;28;20594;-87
2023/05/25 05:05:16;;;;;;;15.13;10.60;;;10.30;89.90;;;;;;5035967;28;20221;-87
2023/05/25 05:07:42;;;;;;;20.83;11.00;;;10.30;89.80;;;;;;5035896;28;20649;-87
2023/05/25 05:10:08;;;;;;;19.60;10.47;;;10.30;90.00;;;;;;5035852;28;20172;-87
2023/05/25 05:12:34;;;;;;;19.53;10.93;;;10.30;90.10;;;;;;5036272;28;20196;-87
2023/05/25 05:15:00;;;;;;;24.57;11.10;;;10.40;90.20;;;;;;5035840;28;20176;-88
2023/05/25 05:17:26;;;;;;;15.90;10.53;;;10.40;90.40;;;;;;5052947;28;20532;-88
2023/05/25 05:19:52;;;;;;;20.03;10.63;;;10.40;90.30;;;;;;5053567;28;20164;-88
2023/05/25 05:22:18;;;;;;;23.50;10.17;;;10.50;90.40;;;;;;5053402;28;20192;-88
2023/05/25 05:24:43;;;;;;;21.13;10.80;;;10.50;90.50;;;;;;5053322;28;20253;-88
2023/05/25 05:27:09;;;;;;;17.30;10.60;;;10.60;90.50;;;;;;5035707;28;20175;-88
2023/05/25 05:29:36;;;;;;;20.57;10.30;;;10.70;90.70;;;;;;5053694;28;20175;-88
2023/05/25 05:32:02;;;;;;;29.70;10.97;;;10.70;90.60;;;;;;5035531;28;20249;-87
2023/05/25 05:34:27;;;;;;;21.17;10.30;;;10.80;90.60;;;;;;5053294;28;20731;-88
2023/05/25 05:36:53;;;;;;;20.70;10.70;;;10.90;90.60;;;;;;5035397;28;20652;-87
2023/05/25 05:39:18;;;;;;;23.87;16.27;;;10.90;90.40;;;;;;5036323;28;20187;-87
2023/05/25 05:41:44;;;;;;;25.67;16.17;;;10.90;90.50;;;;;;5053096;28;20578;-87
2023/05/25 05:44:11;;;;;;;23.73;15.37;;;10.90;90.30;;;;;;5035588;28;20207;-87
2023/05/25 05:46:37;;;;;;;25.50;15.50;;;11.00;90.40;;;;;;5053133;28;20164;-87
2023/05/25 05:49:02;;;;;;;35.10;16.67;;;11.20;90.40;;;;;;5035400;28;20191;-87
2023/05/25 05:51:28;;;;;;;22.27;10.30;;;11.20;90.10;;;;;;5036137;28;20250;-87
2023/05/25 05:53:54;;;;;;;30.90;10.73;;;11.20;90.00;;;;;;5035207;28;20176;-87
2023/05/25 05:56:20;;;;;;;24.03;10.97;;;11.30;89.90;;;;;;5035354;28;20179;-87
2023/05/25 05:58:48;;;;;;;21.77;10.70;;;11.40;89.80;;;;;;5035517;28;20180;-87
2023/05/25 06:01:15;;;;;;;17.90;10.23;;;11.50;89.60;;;;;;5035096;28;20208;-87
2023/05/25 06:03:41;;;;;;;24.90;11.10;;;11.60;89.40;;;;;;5052979;28;20745;-87
2023/05/25 06:06:07;;;;;;;24.60;10.80;;;11.60;89.30;;;;;;5035227;28;20229;-87
2023/05/25 06:08:32;;;;;;;22.37;9.60;;;11.80;89.20;;;;;;5052959;28;20172;-87
2023/05/25 06:10:58;;;;;;;30.00;10.50;;;11.80;88.40;;;;;;5035141;28;20172;-86
2023/05/25 06:13:23;;;;;;;28.87;11.70;;;11.70;87.80;;;;;;5053129;28;20168;-87
2023/05/25 06:15:49;;;;;;;36.87;10.40;;;11.70;87.50;;;;;;5035076;28;20180;-87
2023/05/25 06:18:15;;;;;;;33.57;12.30;;;11.80;87.10;;;;;;5053047;28;20199;-87
2023/05/25 06:20:40;;;;;;;24.67;10.50;;;11.70;86.20;;;;;;5035126;28;20215;-87
2023/05/25 06:23:08;;;;;;;36.00;12.67;;;11.80;85.90;;;;;;5034876;28;20203;-87
2023/05/25 06:25:33;;;;;;;32.93;12.63;;;11.70;85.20;;;;;;5035020;28;20176;-87
2023/05/25 06:27:59;;;;;;;29.30;11.07;;;11.80;85.20;;;;;;5052980;28;20250;-87
2023/05/25 06:30:24;;;;;;;31.17;10.60;;;11.80;84.70;;;;;;5038837;28;20198;-87
2023/05/25 06:32:50;;;;;;;34.47;12.57;;;12.00;84.90;;;;;;5038692;28;20675;-87
2023/05/25 06:35:18;;;;;;;32.93;11.13;;;12.30;84.10;;;;;;5038744;28;20184;-87
2023/05/25 06:37:47;;;;;;;44.23;12.20;;;12.50;83.40;;;;;;5038698;28;20251;-87
2023/05/25 06:40:14;;;;;;;35.13;11.70;;;12.50;82.60;;;;;;5038716;28;20176;-87
2023/05/25 06:42:40;;;;;;;34.70;12.20;;;12.60;82.80;;;;;;5056280;28;20306;-87
2023/05/25 06:45:07;;;;;;;28.50;11.93;;;12.70;82.10;;;;;;5056439;28;20198;-87
2023/05/25 06:47:33;;;;;;;32.87;11.70;;;12.80;81.40;;;;;;5038507;28;20176;-87
2023/05/25 06:49:59;;;;;;;32.73;11.60;;;12.60;80.80;;;;;;5056601;28;20649;-87
2023/05/25 06:52:27;;;;;;;28.13;11.90;;;12.80;81.00;;;;;;5056228;28;20199;-87
2023/05/25 06:54:53;;;;;;;33.27;11.50;;;12.80;79.60;;;;;;5056225;28;20700;-87
2023/05/25 06:57:18;;;;;;;34.63;12.33;;;12.80;79.10;;;;;;5038292;28;20184;-85
2023/05/25 06:59:44;;;;;;;30.07;11.47;;;12.60;78.70;;;;;;5038314;28;20234;-85
2023/05/25 07:02:10;;;;;;;35.97;12.70;;;12.60;78.90;;;;;;5055897;28;20697;-85
2023/05/25 07:04:36;;;;;;;34.33;12.60;;;12.80;79.20;;;;;;5056513;28;20230;-85
2023/05/25 07:07:01;;;;;;;31.37;11.93;;;13.10;78.40;;;;;;5055953;28;20164;-85
2023/05/25 07:09:27;;;;;;;29.87;11.83;;;13.10;78.80;;;;;;5055956;28;20196;-85
2023/05/25 07:11:52;;;;;;;35.13;12.50;;;13.10;78.70;;;;;;5038052;28;20215;-86
2023/05/25 07:14:18;;;;;;;27.93;11.90;;;13.10;79.10;;;;;;5037988;28;20206;-85
2023/05/25 07:16:46;;;;;;;31.97;11.93;;;13.20;78.90;;;;;;5038126;28;20199;-86
2023/05/25 07:19:12;;;;;;;38.63;13.77;;;13.40;78.60;;;;;;5037914;28;20262;-86
2023/05/25 07:21:38;;;;;;;37.00;13.40;;;13.50;78.00;;;;;;5055690;28;20342;-86
2023/05/25 07:24:03;;;;;;;38.10;13.10;;;13.50;77.10;;;;;;5055665;28;20192;-86
2023/05/25 07:26:35;;;;;;;33.37;12.00;;;13.80;76.10;;;;;;5055615;28;20194;-86
2023/05/25 07:29:01;;;;;;;33.30;12.53;;;14.00;76.00;;;;;;5055671;28;20168;-86
2023/05/25 07:31:26;;;;;;;27.93;13.07;;;14.10;75.70;;;;;;5037581;28;20196;-86
2023/05/25 07:33:55;;;;;;;37.07;13.20;;;14.00;74.60;;;;;;5037680;28;20230;-86
2023/05/25 07:36:20;;;;;;;29.90;14.27;;;13.90;74.50;;;;;;5037667;28;20178;-85
2023/05/25 07:38:46;;;;;;;27.23;13.27;;;13.60;73.90;;;;;;5055444;28;20255;-86
2023/05/25 07:41:12;;;;;;;28.97;15.17;;;13.70;74.10;;;;;;5054466;28;20238;-86
2023/05/25 07:43:38;;;;;;;30.47;14.80;;;13.80;73.90;;;;;;5037756;28;20677;-86
2023/05/25 07:46:04;;;;;;;33.33;14.03;;;14.00;72.90;;;;;;5055221;28;20172;-86
2023/05/25 07:48:30;;;;;;;32.60;16.00;;;14.20;73.30;;;;;;5037232;28;20270;-85
2023/05/25 07:50:55;;;;;;;34.80;15.50;;;14.30;71.90;;;;;;5037223;28;20608;-85
2023/05/25 07:53:21;;;;;;;27.43;14.83;;;14.40;72.90;;;;;;5037230;28;20176;-86
2023/05/25 07:55:47;;;;;;;28.10;14.73;;;14.40;71.90;;;;;;5055204;28;20196;-86
2023/05/25 07:58:12;;;;;;;35.15;15.57;;;14.30;72.20;;;;;;5037114;28;20176;-86
2023/05/25 08:00:38;;;;;;;32.93;15.67;;;14.20;73.10;;;;;;5037141;28;20180;-86
2023/05/25 08:03:03;;;;;;;34.15;22.88;;;14.20;72.00;;;;;;5037089;28;20233;-86
2023/05/25 08:05:29;;;;;;;37.47;24.42;;;14.50;71.50;;;;;;5037081;28;20180;-86
2023/05/25 08:07:54;;;;;;;44.08;23.90;;;14.60;70.90;;;;;;5036905;28;20172;-86
2023/05/25 08:10:20;;;;;;;34.05;24.30;;;14.50;70.00;;;;;;5037000;28;20662;-86
2023/05/25 08:12:46;;;;;;;37.67;23.03;;;14.30;70.10;;;;;;5054628;28;20692;-86
2023/05/25 08:15:12;;;;;;;34.33;16.63;;;14.40;70.50;;;;;;5054928;28;20177;-86
2023/05/25 08:17:38;;;;;;;31.77;16.20;;;14.60;69.10;;;;;;5054670;28;20168;-86
2023/05/25 08:20:07;;;;;;;35.40;16.77;;;14.80;70.30;;;;;;5036806;28;20175;-86
2023/05/25 08:22:33;;;;;;;36.97;16.55;;;14.60;69.20;;;;;;5054503;28;20613;-86
2023/05/25 08:24:58;;;;;;;33.55;17.02;;;14.60;71.20;;;;;;5036614;28;20203;-88
2023/05/25 08:27:24;;;;;;;33.38;17.77;;;14.70;70.30;;;;;;5036710;28;20710;-87
2023/05/25 08:29:49;;;;;;;39.22;17.38;;;14.60;69.60;;;;;;5036509;28;20176;-87
2023/05/25 08:32:15;;;;;;;38.53;17.27;;;14.70;70.40;;;;;;5054315;28;20219;-87
2023/05/25 08:34:40;;;;;;;29.58;15.18;;;14.90;70.20;;;;;;5054340;28;20183;-87
2023/05/25 08:37:06;;;;;;;27.33;16.83;;;14.90;69.60;;;;;;5036507;28;20176;-88
2023/05/25 08:39:31;;;;;;;35.38;18.10;;;14.80;69.10;;;;;;5036520;28;20663;-88
2023/05/25 08:41:57;;;;;;;37.08;19.00;;;14.90;68.20;;;;;;5036415;28;20211;-87
2023/05/25 08:44:23;;;;;;;35.40;18.63;;;15.00;65.50;;;;;;5036591;28;20214;-88
2023/05/25 08:47:21;;;;;;;33.85;19.05;;;15.00;68.40;;;;;;5054143;28;20173;-88
2023/05/25 08:50:00;;;;;;;35.78;17.92;;;15.30;68.00;;;;;;5036095;28;20322;-88
2023/05/25 08:52:31;;;;;;;42.88;19.02;;;15.20;67.00;;;;;;5054299;28;20607;-88
2023/05/25 08:55:02;;;;;;;37.78;18.35;;;15.60;68.00;;;;;;5037732;28;20525;-88
2023/05/25 08:57:45;;;;;;;33.08;18.40;;;15.60;66.90;;;;;;5036669;28;20642;-87
2023/05/25 09:00:14;;;;;;;36.17;19.30;;;15.40;66.50;;;;;;5036529;28;20175;-87
2023/05/25 09:02:54;;;;;;;33.55;19.13;;;15.50;66.60;;;;;;5036088;28;20234;-88
2023/05/25 09:05:20;;;;;;;35.72;17.60;;;16.10;67.50;;;;;;5054251;28;20169;-88
2023/05/25 09:07:46;;;;;;;35.42;18.63;;;15.70;68.60;;;;;;5036039;28;20514;-88
2023/05/25 09:10:13;;;;;;;41.92;18.33;;;15.40;68.90;;;;;;5053753;28;20176;-88
2023/05/25 09:12:40;;;;;;;33.42;18.83;;;15.70;69.30;;;;;;5035763;28;20199;-88
2023/05/25 09:15:08;;;;;;;39.90;19.70;;;15.90;67.60;;;;;;5035817;28;20175;-86
2023/05/25 09:17:34;;;;;;;33.80;18.45;;;15.90;66.20;;;;;;5035803;28;20183;-88
2023/05/25 09:19:59;;;;;;;39.17;19.23;;;16.10;69.50;;;;;;5035875;28;20184;-88
2023/05/25 09:22:25;;;;;;;37.83;18.08;;;15.80;67.80;;;;;;5053447;28;20246;-88
2023/05/25 09:24:52;;;;;;;27.92;18.33;;;15.90;67.80;;;;;;5053472;28;20230;-88
2023/05/25 09:27:19;;;;;;;39.72;19.17;;;15.80;66.20;;;;;;5053536;28;20173;-88
2023/05/25 09:29:49;;;;;;;35.58;18.73;;;16.00;64.70;;;;;;5053321;28;20174;-89
2023/05/25 09:32:15;;;;;;;28.58;18.73;;;16.40;66.40;;;;;;5035786;28;20278;-88
2023/05/25 09:34:45;;;;;;;38.75;18.85;;;16.20;65.70;;;;;;5035540;28;20176;-88
2023/05/25 09:37:12;;;;;;;43.70;19.38;;;16.00;66.40;;;;;;5053317;28;20172;-89
2023/05/25 09:39:40;;;;;;;43.67;20.80;;;16.30;67.20;;;;;;5035388;28;20176;-89
2023/05/25 09:42:06;;;;;;;35.97;21.17;;;16.10;65.80;;;;;;5035644;28;20666;-89
2023/05/25 09:44:31;;;;;;;35.90;19.50;;;16.40;64.70;;;;;;5035398;28;20207;-88
2023/05/25 09:46:57;;;;;;;34.28;18.60;;;16.30;63.20;;;;;;5035435;28;20186;-88
2023/05/25 09:49:23;;;;;;;28.73;17.30;;;16.40;63.50;;;;;;5035496;28;20168;-88
2023/05/25 09:51:49;;;;;;;38.63;21.40;;;16.80;63.00;;;;;;5035238;28;20225;-88
2023/05/25 09:54:15;;;;;;;43.72;21.02;;;16.40;64.60;;;;;;5035023;28;20661;-88
2023/05/25 09:56:40;;;;;;;35.97;19.98;;;16.90;64.60;;;;;;5035310;28;20183;-89
2023/05/25 09:59:06;;;;;;;41.92;19.35;;;16.50;64.60;;;;;;5035366;28;20176;-88
2023/05/25 10:01:32;;;;;;;48.95;20.73;;;16.20;66.70;;;;;;5035415;28;20198;-88
2023/05/25 10:04:00;;;;;;;40.63;20.83;;;16.30;64.60;;;;;;5036936;28;20696;-88
2023/05/25 10:06:26;;;;;;;42.47;21.77;;;16.50;65.50;;;;;;5039320;28;20187;-88
2023/05/25 10:08:53;;;;;;;38.03;19.00;;;16.80;64.30;;;;;;5039210;28;20168;-88
2023/05/25 10:11:21;;;;;;;39.65;19.77;;;17.20;63.90;;;;;;5056919;28;20194;-88
2023/05/25 10:13:48;;;;;;;37.88;19.35;;;16.80;62.60;;;;;;5039208;28;20584;-88
2023/05/25 10:16:18;;;;;;;37.63;19.33;;;16.90;62.40;;;;;;5040066;28;20182;-88
2023/05/25 10:18:50;;;;;;;44.55;20.05;;;16.70;65.10;;;;;;5056969;28;20276;-88
2023/05/25 10:21:18;;;;;;;35.72;19.88;;;16.30;63.70;;;;;;5039051;28;20204;-87
2023/05/25 10:23:49;;;;;;;41.67;19.58;;;16.40;64.70;;;;;;5057488;28;20195;-86
2023/05/25 10:26:21;;;;;;;40.90;19.40;;;16.50;64.80;;;;;;5056952;28;20218;-86
2023/05/25 10:28:50;;;;;;;39.22;19.83;;;16.80;63.10;;;;;;5057040;28;20634;-86
2023/05/25 10:31:16;;;;;;;43.00;19.45;;;16.70;64.00;;;;;;5057007;28;20238;-85
2023/05/25 10:33:43;;;;;;;32.63;17.90;;;16.70;64.40;;;;;;5038941;28;20183;-86
2023/05/25 10:36:12;;;;;;;44.83;20.88;;;17.00;63.90;;;;;;5038878;28;20176;-86
2023/05/25 10:38:43;;;;;;;42.17;19.75;;;16.50;63.60;;;;;;5038957;28;20565;-86
2023/05/25 10:41:10;;;;;;;45.70;19.67;;;17.00;63.70;;;;;;5039514;28;20203;-88
2023/05/25 10:43:36;;;;;;;43.83;18.95;;;16.50;63.80;;;;;;5040298;28;20570;-87
2023/05/25 10:46:04;;;;;;;35.20;19.77;;;16.60;62.60;;;;;;5057345;28;20164;-87
2023/05/25 10:48:48;;;;;;;33.33;20.73;;;17.20;62.50;;;;;;5057227;28;20176;-87
2023/05/25 10:51:13;;;;;;;31.58;19.95;;;17.20;60.00;;;;;;5057897;28;20276;-87
2023/05/25 10:53:44;;;;;;;42.10;21.42;;;16.70;61.90;;;;;;5038779;28;20682;-86
2023/05/25 10:56:11;;;;;;;40.63;20.20;;;17.00;61.80;;;;;;5056364;28;20233;-86
2023/05/25 10:58:41;;;;;;;42.60;22.77;;;17.30;63.50;;;;;;5038804;28;20245;-87
2023/05/25 11:01:12;;;;;;;36.03;19.70;;;17.60;61.60;;;;;;5056420;28;20673;-86
2023/05/25 11:03:44;;;;;;;41.90;20.42;;;18.00;60.50;;;;;;5038209;28;20216;-88
2023/05/25 11:06:10;;;;;;;34.75;19.98;;;17.50;61.70;;;;;;5056172;28;20172;-88
2023/05/25 11:08:48;;;;;;;43.33;21.80;;;17.80;60.10;;;;;;5037925;28;20176;-87
2023/05/25 11:11:14;;;;;;;33.70;20.40;;;18.00;59.20;;;;;;5037879;28;20199;-87
2023/05/25 11:13:48;;;;;;;39.13;25.48;;;17.50;57.20;;;;;;5038008;28;20229;-87
2023/05/25 11:16:16;;;;;;;37.78;25.67;;;17.60;60.60;;;;;;5036736;28;20180;-86
2023/05/25 11:18:53;;;;;;;44.78;27.77;;;17.60;59.40;;;;;;5055840;28;20172;-86
2023/05/25 11:21:26;;;;;;;39.28;26.77;;;17.50;60.90;;;;;;5037808;28;20231;-86
2023/05/25 11:23:59;;;;;;;45.45;24.77;;;17.90;59.80;;;;;;5055733;28;20291;-86
2023/05/25 11:26:29;;;;;;;42.00;20.45;;;17.60;60.50;;;;;;5037883;28;20552;-86
2023/05/25 11:28:59;;;;;;;44.42;21.60;;;17.80;61.50;;;;;;5037686;28;20168;-86
2023/05/25 11:31:29;;;;;;;34.08;21.65;;;17.70;60.50;;;;;;5037472;28;20204;-86
2023/05/25 11:33:57;;;;;;;37.05;20.58;;;18.10;59.10;;;;;;5037571;28;20172;-87
2023/05/25 11:36:23;;;;;;;36.00;21.20;;;18.10;60.50;;;;;;5055404;28;20180;-87
2023/05/25 11:38:51;;;;;;;42.00;21.35;;;17.90;59.20;;;;;;5037490;28;20186;-87
2023/05/25 11:41:17;;;;;;;38.78;22.50;;;17.90;59.80;;;;;;5037671;28;20199;-86
2023/05/25 11:43:45;;;;;;;41.92;22.05;;;18.40;60.30;;;;;;5037334;28;20196;-87
2023/05/25 11:46:11;;;;;;;44.50;21.27;;;18.70;57.80;;;;;;5037185;28;20180;-87
2023/05/25 11:48:42;;;;;;;36.92;22.58;;;19.10;56.80;;;;;;5055078;28;20172;-86
2023/05/25 11:51:08;;;;;;;37.70;22.10;;;19.20;58.10;;;;;;5037212;28;20693;-86
2023/05/25 11:53:33;;;;;;;37.25;21.55;;;18.60;56.30;;;;;;5055390;28;20182;-86
2023/05/25 11:55:59;;;;;;;42.47;21.15;;;17.90;61.30;;;;;;5037616;28;20172;-86
2023/05/25 11:58:25;;;;;;;44.58;22.20;;;18.20;60.10;;;;;;5037264;28;20176;-86
2023/05/25 12:00:51;;;;;;;31.25;20.23;;;17.80;59.10;;;;;;5037869;28;20510;-86
2023/05/25 12:03:32;;;;;;;37.72;21.00;;;18.30;58.20;;;;;;5037031;28;20211;-86
2023/05/25 12:05:57;;;;;;;39.25;20.92;;;18.00;59.40;;;;;;5037587;28;20644;-86
2023/05/25 12:08:34;;;;;;;37.80;21.83;;;17.50;62.10;;;;;;5037054;28;20202;-87
2023/05/25 12:11:00;;;;;;;35.78;20.25;;;18.30;59.70;;;;;;5037273;28;20265;-87
2023/05/25 12:13:26;;;;;;;36.70;20.33;;;18.40;58.00;;;;;;5036989;28;20207;-85
2023/05/25 12:15:56;;;;;;;37.00;21.52;;;18.20;59.30;;;;;;5054799;28;20552;-87
2023/05/25 12:18:22;;;;;;;34.85;20.27;;;18.10;60.30;;;;;;5054763;28;20152;-87
2023/05/25 12:20:48;;;;;;;42.42;21.27;;;18.70;59.10;;;;;;5036992;28;20180;-87
2023/05/25 12:23:14;;;;;;;50.80;21.05;;;18.20;59.90;;;;;;5036973;28;20270;-87
2023/05/25 12:25:39;;;;;;;36.50;19.60;;;18.60;59.20;;;;;;5054425;28;20658;-87
2023/05/25 12:28:14;;;;;;;38.78;20.77;;;18.80;59.20;;;;;;5036661;28;20179;-87
2023/05/25 12:30:40;;;;;;;32.03;19.95;;;19.00;56.90;;;;;;5036690;28;20176;-88